createdAt,value
2022-10-05T00:01:01.897Z,6.25
2022-10-05T00:03:10.648Z,6.85
2022-10-05T00:07:30.201Z,5.45
2022-10-05T00:09:32.484Z,5.72
2022-10-05T00:11:33.927Z,5.40
2022-10-05T00:13:35.772Z,5.55
2022-10-05T00:15:37.225Z,5.63
2022-10-05T00:17:38.967Z,6.05
2022-10-05T00:19:40.446Z,6.55
2022-10-05T00:21:41.890Z,5.70
2022-10-05T00:23:43.345Z,6.40
2022-10-05T00:25:44.886Z,5.88
2022-10-05T00:27:56.678Z,6.18
2022-10-05T00:30:01.168Z,6.00
2022-10-05T00:32:02.783Z,6.20
2022-10-05T00:34:04.316Z,6.07
2022-10-05T00:36:07.203Z,6.65
2022-10-05T00:38:08.667Z,5.30
2022-10-05T00:40:56.382Z,6.15
2022-10-05T00:43:25.493Z,5.95
2022-10-05T00:45:36.009Z,5.53
2022-10-05T00:48:10.014Z,6.07
2022-10-05T00:50:14.459Z,5.85
2022-10-05T00:52:48.136Z,5.60
2022-10-05T00:55:18.812Z,5.50
2022-10-05T00:57:23.056Z,6.13
2022-10-05T00:59:43.409Z,6.07
2022-10-05T01:02:17.154Z,6.13
2022-10-05T01:04:46.736Z,6.63
2022-10-05T01:06:48.342Z,5.97
2022-10-05T01:08:55.054Z,6.47
2022-10-05T01:11:07.578Z,5.78
2022-10-05T01:13:11.616Z,6.43
2022-10-05T01:15:13.002Z,5.60
2022-10-05T01:17:29.067Z,5.70
2022-10-05T01:19:53.332Z,7.07
2022-10-05T01:22:04.356Z,6.10
2022-10-05T01:24:15.440Z,5.80
2022-10-05T01:26:47.415Z,6.65
2022-10-05T01:28:56.945Z,6.03
2022-10-05T01:31:28.471Z,5.75
2022-10-05T01:33:42.254Z,5.55
2022-10-05T01:36:00.227Z,5.93
2022-10-05T01:38:21.162Z,6.13
2022-10-05T01:40:25.610Z,5.80
2022-10-05T01:42:40.782Z,6.38
2022-10-05T01:44:42.277Z,6.60
2022-10-05T01:46:49.675Z,5.90
2022-10-05T01:49:17.166Z,5.93
2022-10-05T01:51:28.652Z,6.22
2022-10-05T01:53:37.457Z,6.32
2022-10-05T01:55:54.477Z,6.00
2022-10-05T01:58:05.088Z,6.10
2022-10-05T02:00:10.278Z,5.40
2022-10-05T02:02:16.538Z,5.40
2022-10-05T02:04:42.767Z,5.40
2022-10-05T02:06:47.260Z,5.97
2022-10-05T02:08:54.731Z,5.90
2022-10-05T02:11:02.121Z,5.20
2022-10-05T02:13:16.177Z,5.82
2022-10-05T02:15:24.160Z,5.75
2022-10-05T02:17:38.705Z,6.07
2022-10-05T02:19:50.352Z,6.15
2022-10-05T02:22:02.106Z,5.18
2022-10-05T02:24:09.886Z,5.80
2022-10-05T02:26:12.249Z,5.37
2022-10-05T02:28:19.767Z,5.30
2022-10-05T02:30:21.729Z,5.90
2022-10-05T02:32:28.717Z,5.93
2022-10-05T02:34:36.410Z,5.85
2022-10-05T02:36:38.194Z,6.20
2022-10-05T02:39:14.711Z,5.80
2022-10-05T02:41:34.529Z,6.18
2022-10-05T02:43:54.261Z,5.60
2022-10-05T02:46:30.362Z,6.10
2022-10-05T02:48:56.715Z,5.88
2022-10-05T02:51:28.027Z,6.32
2022-10-05T02:54:05.386Z,5.90
2022-10-05T02:56:26.897Z,6.55
2022-10-05T02:58:39.009Z,6.00
2022-10-05T03:01:11.720Z,6.50
2022-10-05T03:03:37.513Z,5.53
2022-10-05T03:05:48.683Z,6.03
2022-10-05T03:07:50.073Z,6.30
2022-10-05T03:10:17.130Z,5.57
2022-10-05T03:12:27.782Z,6.78
2022-10-05T03:15:04.037Z,6.13
2022-10-05T03:17:19.148Z,6.18
2022-10-05T03:19:36.906Z,6.65
2022-10-05T03:22:01.218Z,6.72
2022-10-05T03:24:33.206Z,5.85
2022-10-05T03:26:52.295Z,5.55
2022-10-05T03:29:26.071Z,6.90
2022-10-05T03:31:41.375Z,6.45
2022-10-05T03:34:12.764Z,6.38
2022-10-05T03:36:16.891Z,6.20
2022-10-05T03:38:23.227Z,6.68
2022-10-05T03:40:40.275Z,7.88
2022-10-05T03:43:18.595Z,6.32
2022-10-05T03:47:32.727Z,7.00
2022-10-05T03:49:55.824Z,6.30
2022-10-05T03:52:18.631Z,7.32
2022-10-05T03:54:32.595Z,7.20
2022-10-05T03:57:07.836Z,7.50
2022-10-05T03:59:16.973Z,6.57
2022-10-05T04:01:29.326Z,8.02
2022-10-05T04:03:50.832Z,7.10
2022-10-05T04:05:58.101Z,6.35
2022-10-05T04:08:07.085Z,7.25
2022-10-05T04:10:16.221Z,7.30
2022-10-05T04:12:27.928Z,8.43
2022-10-05T04:14:37.839Z,7.38
2022-10-05T04:16:44.981Z,7.53
2022-10-05T04:19:11.611Z,7.53
2022-10-05T04:21:38.170Z,7.70
2022-10-05T04:24:06.569Z,7.40
2022-10-05T04:28:32.379Z,7.88
2022-10-05T04:30:40.709Z,7.57
2022-10-05T04:32:53.961Z,8.18
2022-10-05T04:34:58.374Z,7.97
2022-10-05T04:37:06.351Z,7.55
2022-10-05T04:39:19.812Z,7.90
2022-10-05T04:41:39.269Z,8.07
2022-10-05T04:44:06.722Z,7.20
2022-10-05T04:46:43.624Z,8.27
2022-10-05T04:48:51.344Z,8.13
2022-10-05T04:51:08.133Z,8.20
2022-10-05T04:53:34.176Z,9.00
2022-10-05T04:56:00.207Z,8.45
2022-10-05T04:58:19.174Z,8.25
2022-10-05T05:00:25.814Z,8.23
2022-10-05T05:02:52.055Z,8.75
2022-10-05T05:05:20.970Z,9.00
2022-10-05T05:08:10.486Z,7.63
2022-10-05T05:10:24.003Z,8.80
2022-10-05T05:13:01.178Z,9.57
2022-10-05T05:15:26.916Z,8.70
2022-10-05T05:17:52.760Z,9.25
2022-10-05T05:20:20.899Z,8.70
2022-10-05T05:22:43.873Z,9.27
2022-10-05T05:25:20.567Z,8.70
2022-10-05T05:27:45.444Z,9.55
2022-10-05T05:30:24.567Z,8.63
2022-10-05T05:32:38.962Z,9.35
2022-10-05T05:35:28.631Z,10.45
2022-10-05T05:37:30.061Z,9.32
2022-10-05T05:39:41.843Z,9.30
2022-10-05T05:42:01.917Z,9.65
2022-10-05T05:44:14.320Z,9.50
2022-10-05T05:47:02.257Z,9.73
2022-10-05T05:49:06.201Z,9.07
2022-10-05T05:51:15.344Z,9.82
2022-10-05T05:53:23.608Z,9.38
2022-10-05T05:55:44.906Z,9.30
2022-10-05T05:57:52.922Z,8.85
2022-10-05T06:00:16.316Z,9.13
2022-10-05T06:02:27.629Z,8.85
2022-10-05T06:04:35.729Z,10.02
2022-10-05T06:06:42.285Z,10.43
2022-10-05T06:08:49.545Z,9.68
2022-10-05T06:10:55.196Z,9.27
2022-10-05T06:13:03.002Z,9.43
2022-10-05T06:15:13.477Z,9.13
2022-10-05T06:17:24.621Z,8.77
2022-10-05T06:19:27.985Z,9.13
2022-10-05T06:21:38.617Z,9.23
2022-10-05T06:23:52.281Z,9.57
2022-10-05T06:26:10.856Z,9.07
2022-10-05T06:28:14.977Z,8.73
2022-10-05T06:30:17.573Z,10.60
2022-10-05T06:32:48.052Z,8.77
2022-10-05T06:35:21.342Z,8.68
2022-10-05T06:37:45.984Z,8.93
2022-10-05T06:40:02.085Z,8.57
2022-10-05T06:42:25.273Z,8.73
2022-10-05T06:44:32.722Z,9.25
2022-10-05T06:46:55.766Z,8.57
2022-10-05T06:49:20.703Z,8.68
2022-10-05T06:51:48.302Z,9.07
2022-10-05T06:54:07.000Z,9.05
2022-10-05T06:56:20.020Z,8.82
2022-10-05T06:58:36.606Z,8.80
2022-10-05T07:00:41.030Z,8.88
2022-10-05T07:02:53.705Z,9.15
2022-10-05T07:05:16.822Z,8.88
2022-10-05T07:07:40.029Z,8.48
2022-10-05T07:09:47.363Z,8.52
2022-10-05T07:12:07.474Z,8.88
2022-10-05T07:14:09.245Z,8.98
2022-10-05T07:16:13.829Z,8.25
2022-10-05T07:18:48.048Z,8.65
2022-10-05T07:21:04.492Z,8.38
2022-10-05T07:23:27.638Z,8.80
2022-10-05T07:25:36.945Z,8.75
2022-10-05T07:27:59.873Z,7.82
2022-10-05T07:30:07.081Z,8.55
2022-10-05T07:32:55.400Z,8.05
2022-10-05T07:35:34.345Z,7.45
2022-10-05T07:37:57.923Z,7.70
2022-10-05T07:40:18.130Z,7.65
2022-10-05T07:42:28.541Z,7.30
2022-10-05T07:44:38.512Z,7.93
2022-10-05T07:46:46.619Z,7.35
2022-10-05T07:49:08.907Z,7.53
2022-10-05T07:51:26.248Z,7.72
2022-10-05T07:53:44.841Z,7.30
2022-10-05T07:58:30.153Z,6.78
2022-10-05T08:00:51.455Z,6.68
2022-10-05T08:03:01.022Z,7.03
2022-10-05T08:05:11.488Z,7.15
2022-10-05T08:07:17.381Z,6.38
2022-10-05T08:09:24.841Z,6.57
2022-10-05T08:11:26.250Z,6.40
2022-10-05T08:13:39.261Z,6.70
2022-10-05T08:15:43.211Z,5.93
2022-10-05T08:18:11.180Z,6.05
2022-10-05T08:20:37.403Z,5.68
2022-10-05T08:22:47.558Z,6.00
2022-10-05T08:24:58.319Z,5.82
2022-10-05T08:27:10.309Z,5.72
2022-10-05T08:29:14.757Z,5.40
2022-10-05T08:31:16.208Z,5.45
2022-10-05T08:33:20.245Z,5.78
2022-10-05T08:36:08.707Z,5.20
2022-10-05T08:38:20.248Z,5.38
2022-10-05T08:40:24.519Z,5.53
2022-10-05T08:42:44.853Z,5.50
2022-10-05T08:45:00.127Z,5.55
2022-10-05T08:47:05.433Z,5.35
2022-10-05T08:49:16.300Z,5.20
2022-10-05T08:51:58.762Z,5.47
2022-10-05T08:54:12.373Z,5.78
2022-10-05T08:56:17.732Z,5.50
2022-10-05T08:58:53.165Z,5.22
2022-10-05T09:01:03.795Z,5.32
2022-10-05T09:03:14.006Z,5.07
2022-10-05T09:05:21.436Z,4.82
2022-10-05T09:07:57.129Z,4.82
2022-10-05T09:10:26.284Z,4.80
2022-10-05T09:12:58.945Z,4.72
2022-10-05T09:15:41.005Z,5.15
2022-10-05T09:18:02.391Z,5.20
2022-10-05T09:20:17.302Z,4.72
2022-10-05T09:22:54.838Z,5.35
2022-10-05T09:25:15.648Z,5.00
2022-10-05T09:27:19.088Z,4.72
2022-10-05T09:29:41.906Z,5.30
2022-10-05T09:32:01.219Z,5.90
2022-10-05T09:34:30.580Z,5.35
2022-10-05T09:36:57.090Z,4.82
2022-10-05T09:39:16.791Z,4.68
2022-10-05T09:41:55.961Z,4.95
2022-10-05T09:44:07.941Z,4.57
2022-10-05T09:46:42.679Z,4.55
2022-10-05T09:49:21.550Z,4.90
2022-10-05T09:51:41.195Z,4.10
2022-10-05T09:54:02.981Z,4.22
2022-10-05T09:56:34.438Z,4.25
2022-10-05T09:59:07.332Z,4.38
2022-10-05T10:01:34.763Z,4.18
2022-10-05T10:03:58.508Z,3.70
2022-10-05T10:06:22.756Z,3.78
2022-10-05T10:08:52.136Z,3.70
2022-10-05T10:10:56.292Z,3.72
2022-10-05T10:13:19.644Z,3.42
2022-10-05T10:15:41.465Z,3.45
2022-10-05T10:18:04.337Z,3.42
2022-10-05T10:20:24.502Z,3.30
2022-10-05T10:22:53.320Z,4.03
2022-10-05T10:25:18.882Z,3.30
2022-10-05T10:27:32.286Z,3.20
2022-10-05T10:30:19.075Z,3.22
2022-10-05T10:32:50.587Z,3.25
2022-10-05T10:35:01.282Z,3.22
2022-10-05T10:37:42.352Z,3.13
2022-10-05T10:40:09.769Z,2.78
2022-10-05T10:42:32.473Z,3.07
2022-10-05T10:44:42.583Z,2.70
2022-10-05T10:46:44.783Z,3.15
2022-10-05T10:48:54.521Z,2.75
2022-10-05T10:51:14.065Z,2.63
2022-10-05T10:53:25.846Z,2.42
2022-10-05T10:55:45.520Z,2.95
2022-10-05T10:58:04.930Z,2.65
2022-10-05T11:00:22.397Z,2.67
2022-10-05T11:02:51.243Z,2.67
2022-10-05T11:05:33.781Z,2.40
2022-10-05T11:07:57.148Z,2.33
2022-10-05T11:10:16.541Z,2.42
2022-10-05T11:12:46.149Z,1.88
2022-10-05T11:15:15.007Z,1.98
2022-10-05T11:17:31.780Z,2.13
2022-10-05T11:20:05.005Z,2.30
2022-10-05T11:22:17.172Z,2.55
2022-10-05T11:24:45.066Z,2.13
2022-10-05T11:26:52.370Z,2.10
2022-10-05T11:29:24.483Z,1.98
2022-10-05T11:31:55.518Z,1.90
2022-10-05T11:34:29.314Z,1.77
2022-10-05T11:37:20.004Z,1.58
2022-10-05T11:39:43.552Z,1.25
2022-10-05T11:42:10.069Z,1.42
2022-10-05T11:44:12.183Z,1.80
2022-10-05T11:46:16.346Z,1.40
2022-10-05T11:48:55.043Z,1.50
2022-10-05T11:51:12.111Z,1.50
2022-10-05T11:53:37.585Z,1.50
2022-10-05T11:55:57.929Z,1.77
2022-10-05T11:58:07.461Z,1.30
2022-10-05T12:00:31.293Z,1.65
2022-10-05T12:02:43.040Z,1.65
2022-10-05T12:05:11.234Z,2.00
2022-10-05T12:07:27.672Z,1.47
2022-10-05T12:10:06.458Z,2.13
2022-10-05T12:12:29.581Z,1.10
2022-10-05T12:14:34.168Z,1.38
2022-10-05T12:16:51.065Z,1.60
2022-10-05T12:19:28.239Z,1.70
2022-10-05T12:21:44.206Z,1.98
2022-10-05T12:23:59.916Z,1.90
2022-10-05T12:26:15.200Z,1.75
2022-10-05T12:28:28.690Z,1.60
2022-10-05T12:30:51.725Z,1.33
2022-10-05T12:33:19.682Z,1.95
2022-10-05T12:35:49.656Z,1.63
2022-10-05T12:38:02.807Z,1.83
2022-10-05T12:40:26.727Z,1.55
2022-10-05T12:42:42.059Z,1.42
2022-10-05T12:44:55.638Z,1.45
2022-10-05T12:46:57.006Z,1.58
2022-10-05T12:49:25.804Z,1.90
2022-10-05T12:51:46.549Z,1.80
2022-10-05T12:53:56.960Z,2.00
2022-10-05T12:56:09.949Z,1.70
2022-10-05T12:58:36.109Z,2.03
2022-10-05T13:00:49.210Z,1.65
2022-10-05T13:02:59.457Z,2.05
2022-10-05T13:05:09.790Z,1.77
2022-10-05T13:07:32.070Z,1.70
2022-10-05T13:09:43.640Z,1.70
2022-10-05T13:11:50.890Z,1.73
2022-10-05T13:14:11.012Z,1.58
2022-10-05T13:16:31.069Z,1.60
2022-10-05T13:18:35.341Z,1.70
2022-10-05T13:20:46.296Z,1.98
2022-10-05T13:23:00.309Z,2.38
2022-10-05T13:25:13.821Z,1.50
2022-10-05T13:27:23.458Z,1.90
2022-10-05T13:29:39.736Z,2.50
2022-10-05T13:31:47.824Z,1.70
2022-10-05T13:34:08.391Z,1.75
2022-10-05T13:36:25.961Z,1.70
2022-10-05T13:39:03.516Z,1.90
2022-10-05T13:41:17.132Z,1.70
2022-10-05T13:43:28.200Z,1.90
2022-10-05T13:45:52.665Z,1.70
2022-10-05T13:48:05.896Z,2.08
2022-10-05T13:50:20.232Z,1.55
2022-10-05T13:52:34.082Z,1.40
2022-10-05T13:54:53.357Z,1.65
2022-10-05T13:57:05.461Z,1.67
2022-10-05T13:59:07.039Z,1.60
2022-10-05T14:01:22.279Z,1.60
2022-10-05T14:03:27.639Z,1.77
2022-10-05T14:05:31.165Z,1.33
2022-10-05T14:07:38.340Z,1.52
2022-10-05T14:09:48.813Z,1.95
2022-10-05T14:12:11.073Z,1.80
2022-10-05T14:14:16.191Z,1.70
2022-10-05T14:16:26.179Z,1.55
2022-10-05T14:18:31.349Z,1.75
2022-10-05T14:20:34.360Z,1.70
2022-10-05T14:22:42.172Z,1.60
2022-10-05T14:25:03.091Z,1.70
2022-10-05T14:27:18.924Z,1.60
2022-10-05T14:29:24.748Z,1.85
2022-10-05T14:31:36.423Z,1.92
2022-10-05T14:33:38.344Z,1.58
2022-10-05T14:35:54.669Z,1.83
2022-10-05T14:38:00.457Z,1.90
2022-10-05T14:40:26.141Z,1.42
2022-10-05T14:42:30.452Z,1.70
2022-10-05T14:46:53.169Z,1.63
2022-10-05T14:49:17.226Z,1.60
2022-10-05T14:51:30.349Z,1.90
2022-10-05T14:53:39.258Z,1.50
2022-10-05T14:56:06.278Z,1.52
2022-10-05T14:58:39.976Z,1.70
2022-10-05T15:00:56.874Z,1.50
2022-10-05T15:03:08.728Z,1.58
2022-10-05T15:05:19.003Z,1.50
2022-10-05T15:07:20.387Z,1.55
2022-10-05T15:09:55.050Z,1.35
2022-10-05T15:11:59.965Z,1.45
2022-10-05T15:14:06.144Z,1.50
2022-10-05T15:16:19.935Z,1.50
2022-10-05T15:18:41.687Z,1.90
2022-10-05T15:21:21.569Z,1.83
2022-10-05T15:23:53.224Z,1.63
2022-10-05T15:26:10.679Z,2.05
2022-10-05T15:28:24.167Z,1.80
2022-10-05T15:30:25.679Z,1.38
2022-10-05T15:32:29.817Z,1.88
2022-10-05T15:34:34.131Z,1.58
2022-10-05T15:37:07.759Z,1.73
2022-10-05T15:39:36.833Z,1.60
2022-10-05T15:42:00.350Z,1.30
2022-10-05T15:44:19.874Z,1.80
2022-10-05T15:46:34.381Z,1.67
2022-10-05T15:48:36.188Z,1.80
2022-10-05T15:50:50.491Z,1.60
2022-10-05T15:53:29.401Z,1.58
2022-10-05T15:55:49.101Z,1.67
2022-10-05T15:58:24.807Z,1.50
2022-10-05T16:00:28.091Z,1.55
2022-10-05T16:02:41.153Z,1.50
2022-10-05T16:04:59.983Z,1.67
2022-10-05T16:07:30.971Z,1.67
2022-10-05T16:10:03.683Z,1.67
2022-10-05T16:12:19.032Z,1.40
2022-10-05T16:14:34.551Z,1.70
2022-10-05T16:16:47.177Z,1.35
2022-10-05T16:19:14.883Z,1.20
2022-10-05T16:21:32.039Z,1.70
2022-10-05T16:24:30.856Z,1.73
2022-10-05T16:26:40.584Z,1.70
2022-10-05T16:28:59.991Z,2.10
2022-10-05T16:31:34.612Z,1.33
2022-10-05T16:34:17.118Z,1.50
2022-10-05T16:36:31.490Z,1.90
2022-10-05T16:38:51.317Z,1.70
2022-10-05T16:41:20.921Z,2.00
2022-10-05T16:43:49.500Z,1.45
2022-10-05T16:46:20.848Z,1.83
2022-10-05T16:48:32.788Z,1.80
2022-10-05T16:50:37.176Z,1.70
2022-10-05T16:52:41.790Z,1.55
2022-10-05T16:54:49.653Z,1.58
2022-10-05T16:57:14.317Z,2.00
2022-10-05T16:59:37.202Z,1.55
2022-10-05T17:02:10.805Z,1.60
2022-10-05T17:04:46.036Z,1.65
2022-10-05T17:07:14.288Z,1.77
2022-10-05T17:09:34.580Z,1.70
2022-10-05T17:11:44.935Z,2.05
2022-10-05T17:14:05.107Z,2.00
2022-10-05T17:16:40.492Z,2.28
2022-10-05T17:19:23.025Z,1.90
2022-10-05T17:21:41.368Z,1.70
2022-10-05T17:24:11.069Z,1.90
2022-10-05T17:26:33.972Z,1.90
2022-10-05T17:28:44.780Z,1.77
2022-10-05T17:30:56.112Z,1.83
2022-10-05T17:33:14.144Z,1.63
2022-10-05T17:35:19.160Z,1.75
2022-10-05T17:37:41.639Z,1.60
2022-10-05T17:39:52.526Z,2.00
2022-10-05T17:42:24.940Z,1.90
2022-10-05T17:44:26.623Z,2.10
2022-10-05T17:46:39.843Z,1.90
2022-10-05T17:48:54.317Z,1.90
2022-10-05T17:51:14.399Z,1.80
2022-10-05T17:53:40.528Z,1.83
2022-10-05T17:55:45.995Z,1.85
2022-10-05T17:57:47.499Z,1.75
2022-10-05T17:59:57.972Z,1.67
2022-10-05T18:02:19.900Z,1.90
2022-10-05T18:04:30.353Z,2.55
2022-10-05T18:06:34.409Z,1.80
2022-10-05T18:08:40.754Z,1.48
2022-10-05T18:11:12.865Z,1.90
2022-10-05T18:13:35.287Z,1.83
2022-10-05T18:15:44.715Z,1.98
2022-10-05T18:17:52.928Z,1.60
2022-10-05T18:20:18.043Z,1.83
2022-10-05T18:22:19.424Z,1.50
2022-10-05T18:24:40.280Z,1.83
2022-10-05T18:27:03.036Z,1.95
2022-10-05T18:29:45.371Z,1.77
2022-10-05T18:31:55.190Z,2.22
2022-10-05T18:34:34.108Z,2.00
2022-10-05T18:36:56.486Z,1.60
2022-10-05T18:39:12.946Z,1.80
2022-10-05T18:41:35.361Z,1.73
2022-10-05T18:44:08.610Z,2.00
2022-10-05T18:46:48.366Z,2.35
2022-10-05T18:49:11.078Z,1.60
2022-10-05T18:51:21.724Z,1.80
2022-10-05T18:53:29.219Z,1.98
2022-10-05T18:55:43.469Z,1.63
2022-10-05T18:58:05.556Z,1.85
2022-10-05T19:00:16.276Z,1.30
2022-10-05T19:02:25.201Z,1.50
2022-10-05T19:04:43.658Z,1.35
2022-10-05T19:07:17.347Z,1.50
2022-10-05T19:09:24.789Z,1.75
2022-10-05T19:11:38.415Z,1.40
2022-10-05T19:14:10.683Z,1.58
2022-10-05T19:16:46.265Z,1.80
2022-10-05T19:19:04.491Z,1.67
2022-10-05T19:21:29.492Z,1.40
2022-10-05T19:24:01.773Z,1.90
2022-10-05T19:26:16.550Z,1.70
2022-10-05T19:28:30.929Z,1.60
2022-10-05T19:30:46.621Z,1.77
2022-10-05T19:32:56.974Z,1.50
2022-10-05T19:35:20.328Z,1.42
2022-10-05T19:38:01.008Z,1.60
2022-10-05T19:40:20.587Z,1.45
2022-10-05T19:43:06.655Z,1.60
2022-10-05T19:45:08.081Z,1.90
2022-10-05T19:47:41.273Z,1.52
2022-10-05T19:49:47.604Z,1.48
2022-10-05T19:51:50.620Z,1.65
2022-10-05T19:53:56.033Z,1.52
2022-10-05T19:56:16.664Z,1.50
2022-10-05T19:58:21.657Z,1.63
2022-10-05T20:00:31.242Z,1.50
2022-10-05T20:02:37.505Z,1.60
2022-10-05T20:04:47.490Z,1.40
2022-10-05T20:06:49.070Z,1.08
2022-10-05T20:08:52.655Z,1.10
2022-10-05T20:11:27.221Z,1.20
2022-10-05T20:13:32.651Z,0.90
2022-10-05T20:15:54.578Z,1.10
2022-10-05T20:18:14.795Z,0.70
2022-10-05T20:20:38.217Z,1.45
2022-10-05T20:22:46.294Z,1.00
2022-10-05T20:24:53.488Z,1.25
2022-10-05T20:27:05.474Z,1.15
2022-10-05T20:29:09.290Z,0.90
2022-10-05T20:31:10.901Z,0.95
2022-10-05T20:33:14.839Z,1.30
2022-10-05T20:35:18.652Z,0.98
2022-10-05T20:37:20.187Z,1.05
2022-10-05T20:39:21.729Z,0.95
2022-10-05T20:41:23.231Z,0.88
2022-10-05T20:43:24.713Z,0.80
2022-10-05T20:45:26.334Z,1.02
2022-10-05T20:47:27.784Z,0.95
2022-10-05T20:49:30.976Z,1.00
2022-10-05T20:51:32.427Z,1.10
2022-10-05T20:53:34.053Z,1.00
2022-10-05T20:55:36.366Z,0.73
2022-10-05T20:57:41.851Z,1.08
2022-10-05T20:59:43.396Z,0.95
2022-10-05T21:01:48.013Z,0.90
2022-10-05T21:03:50.639Z,1.30
2022-10-05T21:05:52.091Z,1.42
2022-10-05T21:07:53.514Z,1.10
2022-10-05T21:09:55.688Z,0.80
2022-10-05T21:11:57.472Z,1.10
2022-10-05T21:14:03.375Z,0.95
2022-10-05T21:16:08.794Z,1.05
2022-10-05T21:18:10.251Z,1.05
2022-10-05T21:20:12.022Z,1.05
2022-10-05T21:22:13.467Z,0.85
2022-10-05T21:24:15.340Z,1.00
2022-10-05T21:26:16.876Z,1.23
2022-10-05T21:28:18.479Z,0.98
2022-10-05T21:30:19.958Z,0.98
2022-10-05T21:32:21.384Z,0.88
2022-10-05T21:34:22.810Z,1.08
2022-10-05T21:36:24.853Z,1.15
2022-10-05T21:38:27.074Z,0.90
2022-10-05T21:40:28.702Z,1.23
2022-10-05T21:42:30.183Z,1.00
2022-10-05T21:44:31.631Z,1.00
2022-10-05T21:46:36.028Z,1.08
2022-10-05T21:48:39.677Z,0.80
2022-10-05T21:50:41.665Z,1.27
2022-10-05T21:52:43.361Z,1.40
2022-10-05T21:54:44.893Z,1.40
2022-10-05T21:56:50.181Z,1.08
2022-10-05T21:58:52.221Z,1.10
2022-10-05T22:00:53.742Z,1.15
2022-10-05T22:02:55.218Z,0.98
2022-10-05T22:04:58.108Z,0.95
2022-10-05T22:06:59.714Z,0.88
2022-10-05T22:09:01.202Z,1.10
2022-10-05T22:11:12.126Z,1.02
2022-10-05T22:13:13.594Z,1.10
2022-10-05T22:15:15.421Z,1.40
2022-10-05T22:17:23.182Z,1.38
2022-10-05T22:19:24.801Z,1.40
2022-10-05T22:21:26.492Z,0.55
2022-10-05T22:23:27.912Z,0.38
2022-10-05T22:25:33.784Z,0.50
2022-10-05T22:27:36.006Z,0.40
2022-10-05T22:29:37.546Z,0.30
2022-10-05T22:31:39.286Z,0.20
2022-10-05T22:33:41.015Z,0.13
2022-10-05T22:35:42.585Z,0.15
2022-10-05T22:37:45.178Z,0.30
2022-10-05T22:39:46.605Z,0.30
2022-10-05T22:41:48.686Z,0.20
2022-10-05T22:43:51.232Z,0.30
2022-10-05T22:45:53.283Z,0.20
2022-10-05T22:47:54.725Z,0.20
2022-10-05T22:49:56.189Z,0.30
2022-10-05T22:51:57.641Z,0.30
2022-10-05T22:53:59.086Z,0.30
2022-10-05T22:56:08.578Z,0.20
2022-10-05T22:58:10.018Z,0.30
2022-10-05T23:00:12.416Z,0.30
2022-10-05T23:02:14.078Z,0.30
2022-10-05T23:04:15.584Z,0.30
2022-10-05T23:06:19.286Z,0.25
2022-10-05T23:08:20.750Z,0.70
2022-10-05T23:10:22.303Z,0.30
2022-10-05T23:12:23.730Z,0.28
2022-10-05T23:14:25.216Z,0.30
2022-10-05T23:16:28.249Z,0.40
2022-10-05T23:18:30.239Z,0.30
2022-10-05T23:20:32.200Z,0.25
2022-10-05T23:22:37.873Z,0.30
2022-10-05T23:24:39.294Z,0.60
2022-10-05T23:26:40.729Z,0.30
2022-10-05T23:28:46.586Z,0.20
2022-10-05T23:30:48.151Z,0.20
2022-10-05T23:32:49.610Z,0.20
2022-10-05T23:34:51.045Z,0.28
2022-10-05T23:36:52.748Z,0.20
2022-10-05T23:38:54.313Z,0.20
2022-10-05T23:40:57.948Z,0.20
2022-10-05T23:43:00.810Z,0.35
2022-10-05T23:45:02.317Z,0.28
2022-10-05T23:47:03.805Z,0.20
2022-10-05T23:49:05.262Z,0.20
2022-10-05T23:51:08.213Z,0.28
2022-10-05T23:53:09.713Z,0.20
2022-10-05T23:55:11.148Z,0.30
2022-10-05T23:57:19.350Z,0.25
2022-10-05T23:59:20.780Z,0.20
